createdAt,value
2023-01-11T00:01:01.568Z,6.00
2023-01-11T00:06:02.735Z,5.77
2023-01-11T00:11:03.853Z,5.88
2023-01-11T00:16:05.098Z,5.91
2023-01-11T00:21:06.719Z,5.95
2023-01-11T00:26:05.895Z,5.91
2023-01-11T00:31:07.072Z,5.88
2023-01-11T00:36:08.219Z,5.98
2023-01-11T00:41:09.382Z,6.03
2023-01-11T00:46:10.592Z,6.09
2023-01-11T00:51:11.681Z,6.01
2023-01-11T00:56:12.863Z,6.00
2023-01-11T01:01:14.056Z,6.21
2023-01-11T01:06:15.288Z,6.16
2023-01-11T01:11:16.465Z,6.00
2023-01-11T01:16:21.487Z,6.11
2023-01-11T01:21:18.599Z,6.21
2023-01-11T01:26:20.750Z,6.28
2023-01-11T01:31:20.301Z,6.32
2023-01-11T01:36:19.520Z,6.40
2023-01-11T01:41:21.162Z,6.38
2023-01-11T01:46:20.355Z,6.38
2023-01-11T01:51:21.531Z,6.35
2023-01-11T01:56:22.683Z,6.33
2023-01-11T02:01:23.919Z,6.40
2023-01-11T02:06:25.068Z,6.43
2023-01-11T02:11:26.285Z,6.44
2023-01-11T02:16:27.432Z,6.36
2023-01-11T02:21:28.619Z,6.32
2023-01-11T02:26:29.797Z,6.30
2023-01-11T02:31:30.972Z,6.41
2023-01-11T02:36:32.115Z,6.35
2023-01-11T02:41:33.198Z,6.33
2023-01-11T02:46:34.462Z,6.36
2023-01-11T02:51:35.564Z,6.35
2023-01-11T02:56:36.679Z,6.28
2023-01-11T03:01:37.845Z,6.21
2023-01-11T03:06:39.056Z,6.14
2023-01-11T03:11:40.264Z,6.16
2023-01-11T03:16:41.531Z,6.28
2023-01-11T03:21:42.694Z,6.38
2023-01-11T03:26:43.856Z,6.38
2023-01-11T03:31:45.056Z,6.30
2023-01-11T03:36:46.157Z,6.35
2023-01-11T03:41:47.285Z,6.28
2023-01-11T03:46:48.563Z,6.30
2023-01-11T03:51:49.753Z,6.30
2023-01-11T03:56:50.982Z,6.11
2023-01-11T04:01:52.094Z,6.06
2023-01-11T04:06:53.249Z,6.03
2023-01-11T04:11:54.339Z,5.91
2023-01-11T04:16:55.607Z,5.88
2023-01-11T04:21:56.744Z,5.89
2023-01-11T04:26:57.891Z,5.89
2023-01-11T04:31:58.994Z,5.73
2023-01-11T04:37:00.130Z,5.81
2023-01-11T04:42:01.253Z,5.85
2023-01-11T04:47:02.424Z,5.83
2023-01-11T04:52:03.527Z,5.74
2023-01-11T04:57:04.838Z,5.77
2023-01-11T05:02:06.006Z,5.75
2023-01-11T05:07:07.174Z,5.82
2023-01-11T05:12:08.327Z,5.88
2023-01-11T05:17:09.583Z,5.75
2023-01-11T05:22:10.741Z,5.67
2023-01-11T05:27:10.908Z,5.70
2023-01-11T05:32:12.077Z,5.55
2023-01-11T05:37:12.277Z,5.56
2023-01-11T05:42:14.528Z,5.60
2023-01-11T05:47:13.672Z,5.74
2023-01-11T05:52:14.846Z,5.95
2023-01-11T05:57:16.033Z,5.96
2023-01-11T06:02:17.373Z,5.96
2023-01-11T06:07:18.673Z,5.92
2023-01-11T06:12:19.895Z,5.83
2023-01-11T06:17:21.073Z,5.81
2023-01-11T06:22:22.316Z,5.88
2023-01-11T06:27:23.538Z,6.04
2023-01-11T06:32:24.717Z,6.32
2023-01-11T06:37:25.977Z,6.26
2023-01-11T06:42:27.133Z,6.33
2023-01-11T06:47:28.292Z,6.21
2023-01-11T06:52:29.481Z,6.41
2023-01-11T06:57:30.663Z,6.18
2023-01-11T07:02:31.945Z,6.26
2023-01-11T07:07:33.180Z,6.43
2023-01-11T07:12:34.419Z,6.62
2023-01-11T07:17:35.663Z,6.79
2023-01-11T07:22:37.267Z,6.62
2023-01-11T07:27:36.521Z,6.59
2023-01-11T07:32:37.782Z,6.40
2023-01-11T07:37:38.979Z,6.50
2023-01-11T07:42:40.188Z,6.73
2023-01-11T07:47:41.403Z,6.81
2023-01-11T07:52:42.575Z,6.95
2023-01-11T07:57:43.732Z,6.87
2023-01-11T08:02:44.989Z,7.04
2023-01-11T08:07:46.156Z,7.02
2023-01-11T08:12:48.231Z,6.99
2023-01-11T08:17:48.622Z,6.97
2023-01-11T08:22:49.907Z,6.91
2023-01-11T08:27:51.138Z,6.79
2023-01-11T08:32:52.339Z,7.20
2023-01-11T08:37:53.478Z,7.50
2023-01-11T08:42:55.613Z,7.87
2023-01-11T08:47:54.723Z,7.87
2023-01-11T08:52:55.852Z,7.75
2023-01-11T08:57:56.994Z,7.84
2023-01-11T09:02:58.182Z,7.89
2023-01-11T09:07:59.310Z,8.07
2023-01-11T09:13:00.416Z,9.56
2023-01-11T09:18:01.540Z,8.68
2023-01-11T09:23:03.733Z,8.50
2023-01-11T09:28:21.886Z,8.47
2023-01-11T09:33:04.025Z,8.65
2023-01-11T09:38:03.128Z,8.76
2023-01-11T09:43:04.265Z,8.76
2023-01-11T09:48:06.414Z,8.87
2023-01-11T09:53:05.576Z,8.84
2023-01-11T09:58:06.908Z,8.94
2023-01-11T10:03:08.119Z,8.90
2023-01-11T10:18:39.530Z,8.87
2023-01-11T10:23:10.244Z,8.96
2023-01-11T10:28:09.390Z,8.94
2023-01-11T10:33:10.531Z,9.05
2023-01-11T10:38:11.610Z,8.96
2023-01-11T10:43:13.791Z,9.04
2023-01-11T10:48:12.943Z,9.05
2023-01-11T10:53:15.105Z,9.16
2023-01-11T10:58:14.261Z,9.48
2023-01-11T11:03:14.063Z,9.60
2023-01-11T11:08:15.206Z,9.68
2023-01-11T11:13:17.350Z,9.63
2023-01-11T11:18:17.465Z,9.46
2023-01-11T11:23:16.620Z,9.31
2023-01-11T11:28:17.745Z,9.28
2023-01-11T11:33:18.877Z,9.31
2023-01-11T11:38:23.029Z,9.30
2023-01-11T11:43:21.492Z,9.27
2023-01-11T11:48:21.770Z,9.20
2023-01-11T11:53:21.920Z,9.16
2023-01-11T11:58:21.054Z,9.16
2023-01-11T12:03:22.223Z,9.02
2023-01-11T12:08:24.352Z,9.16
2023-01-11T12:13:24.600Z,9.28
2023-01-11T12:18:23.762Z,9.39
2023-01-11T12:23:24.876Z,9.46
2023-01-11T12:28:26.042Z,9.27
2023-01-11T12:33:27.179Z,9.27
2023-01-11T12:38:28.322Z,9.27
2023-01-11T12:43:29.468Z,9.31
2023-01-11T12:48:31.603Z,9.16
2023-01-11T12:53:30.707Z,9.15
2023-01-11T12:58:31.866Z,9.06
2023-01-11T13:03:33.036Z,9.04
2023-01-11T13:08:34.205Z,9.20
2023-01-11T13:13:35.384Z,9.02
2023-01-11T13:18:36.548Z,8.66
2023-01-11T13:23:37.700Z,8.42
2023-01-11T13:28:38.893Z,8.44
2023-01-11T13:33:40.072Z,8.72
2023-01-11T13:38:42.377Z,8.81
2023-01-11T13:43:41.501Z,8.68
2023-01-11T13:48:42.649Z,8.33
2023-01-11T13:53:43.804Z,8.03
2023-01-11T13:58:44.928Z,8.07
2023-01-11T14:03:46.168Z,8.02
2023-01-11T14:08:47.516Z,8.03
2023-01-11T14:13:48.649Z,7.99
2023-01-11T14:18:49.798Z,7.89
2023-01-11T14:23:52.251Z,7.84
2023-01-11T14:28:51.415Z,7.85
2023-01-11T14:33:52.544Z,7.47
2023-01-11T14:38:53.697Z,7.62
2023-01-11T14:43:54.831Z,7.72
2023-01-11T14:48:55.963Z,7.04
2023-01-11T14:53:57.131Z,6.90
2023-01-11T14:58:58.253Z,6.95
2023-01-11T15:04:00.425Z,7.19
2023-01-11T15:09:00.549Z,6.86
2023-01-11T15:13:59.730Z,7.09
2023-01-11T15:19:00.846Z,7.31
2023-01-11T15:24:02.010Z,7.40
2023-01-11T15:29:03.138Z,7.71
2023-01-11T15:34:04.333Z,7.94
2023-01-11T15:39:06.498Z,8.04
2023-01-11T15:44:05.630Z,7.50
2023-01-11T15:49:06.814Z,7.35
2023-01-11T15:54:07.962Z,7.15
2023-01-11T15:59:09.082Z,7.24
2023-01-11T16:04:11.005Z,7.42
2023-01-11T16:09:10.148Z,7.37
2023-01-11T16:14:11.398Z,7.12
2023-01-11T16:19:12.547Z,7.15
2023-01-11T16:24:14.741Z,7.01
2023-01-11T16:29:13.855Z,7.16
2023-01-11T16:34:15.978Z,7.35
2023-01-11T16:39:15.094Z,7.40
2023-01-11T16:44:16.207Z,7.56
2023-01-11T16:49:17.345Z,7.58
2023-01-11T16:54:18.521Z,7.62
2023-01-11T16:59:19.702Z,7.74
2023-01-11T17:04:20.847Z,7.71
2023-01-11T17:09:21.983Z,7.62
2023-01-11T17:14:23.179Z,8.30
2023-01-11T17:19:24.383Z,8.12
2023-01-11T17:24:25.584Z,7.85
2023-01-11T17:29:26.741Z,7.77
2023-01-11T17:34:28.865Z,7.59
2023-01-11T17:39:29.022Z,7.47
2023-01-11T17:44:29.158Z,7.44
2023-01-11T17:49:29.293Z,7.56
2023-01-11T17:54:29.465Z,7.52
2023-01-11T17:59:29.606Z,7.40
2023-01-11T18:04:28.747Z,7.27
2023-01-11T18:09:29.892Z,7.35
2023-01-11T18:14:32.077Z,7.41
2023-01-11T18:19:34.251Z,7.49
2023-01-11T18:24:31.464Z,7.32
2023-01-11T18:29:32.749Z,7.38
2023-01-11T18:34:36.149Z,7.38
2023-01-11T18:39:35.485Z,7.35
2023-01-11T18:44:37.840Z,7.29
2023-01-11T18:49:36.999Z,7.29
2023-01-11T18:54:39.331Z,7.26
2023-01-11T18:59:38.511Z,7.22
2023-01-11T19:04:40.977Z,7.22
2023-01-11T19:09:41.183Z,7.41
2023-01-11T19:14:40.361Z,7.59
2023-01-11T19:19:41.538Z,7.67
2023-01-11T19:24:42.735Z,7.84
2023-01-11T19:29:44.118Z,8.58
2023-01-11T19:34:43.568Z,8.69
2023-01-11T19:39:44.802Z,8.40
2023-01-11T19:44:46.711Z,7.93
2023-01-11T19:49:45.984Z,7.62
2023-01-11T19:54:47.343Z,7.22
2023-01-11T19:59:48.615Z,7.37
2023-01-11T20:04:49.780Z,7.38
2023-01-11T20:09:51.118Z,7.71
2023-01-11T20:14:52.580Z,7.75
2023-01-11T20:19:54.904Z,7.79
2023-01-11T20:24:54.031Z,7.78
2023-01-11T20:29:55.211Z,7.66
2023-01-11T20:34:56.366Z,7.42
2023-01-11T20:39:57.746Z,7.27
2023-01-11T20:44:59.150Z,7.26
2023-01-11T20:49:59.349Z,7.45
2023-01-11T20:55:00.611Z,7.59
2023-01-11T21:00:01.799Z,7.20
2023-01-11T21:05:03.057Z,7.12
2023-01-11T21:10:04.299Z,7.17
2023-01-11T21:15:05.462Z,7.04
2023-01-11T21:20:06.658Z,6.83
2023-01-11T21:25:07.833Z,6.69
2023-01-11T21:30:09.024Z,6.61
2023-01-11T21:35:10.259Z,6.81
2023-01-11T21:40:11.519Z,6.79
2023-01-11T21:45:12.766Z,6.69
2023-01-11T21:50:14.023Z,6.81
2023-01-11T21:55:15.258Z,7.16
2023-01-11T22:00:16.506Z,7.52
2023-01-11T22:05:17.727Z,8.04
2023-01-11T22:10:18.884Z,8.08
2023-01-11T22:15:20.071Z,8.25
2023-01-11T22:20:21.205Z,7.96
2023-01-11T22:25:22.354Z,7.60
2023-01-11T22:30:24.499Z,7.52
2023-01-11T22:35:23.613Z,7.31
2023-01-11T22:40:24.783Z,7.15
2023-01-11T22:45:26.036Z,7.01
2023-01-11T22:50:27.175Z,6.90
2023-01-11T22:55:28.312Z,6.62
2023-01-11T23:00:30.463Z,6.44
2023-01-11T23:05:30.575Z,6.41
2023-01-11T23:10:30.720Z,6.41
2023-01-11T23:15:29.870Z,6.38
2023-01-11T23:20:31.019Z,6.43
2023-01-11T23:25:32.473Z,6.33
2023-01-11T23:30:34.648Z,6.38
2023-01-11T23:35:34.840Z,6.38
2023-01-11T23:40:33.940Z,6.91
2023-01-11T23:45:35.103Z,6.83
2023-01-11T23:50:35.267Z,7.60
2023-01-11T23:55:38.426Z,7.84
